Time;durP1;ratioP1;P1;durP2;ratioP2;P2;SDS_P1;SDS_P2;PMS_P1;PMS_P2;Temp;Humidity;BMP_temperature;BMP_pressure;BME280_temperature;BME280_humidity;BME280_pressure;Samples;Min_cycle;Max_cycle;Signal;HPM_P1;HPM_P2
2022/01/18 00:00:55;;;;;;;43.03;7.45;;;6.20;99.90;;;;;;5017227;28;20056;-63
2022/01/18 00:03:21;;;;;;;43.88;7.20;;;6.20;99.90;;;;;;5027267;28;20037;-63
2022/01/18 00:05:49;;;;;;;44.60;8.43;;;6.30;99.90;;;;;;5017964;28;20042;-63
2022/01/18 00:08:16;;;;;;;36.78;6.38;;;6.30;99.90;;;;;;5016971;28;20080;-63
2022/01/18 00:10:43;;;;;;;28.98;6.20;;;6.30;99.90;;;;;;5020234;28;20259;-63
2022/01/18 00:13:24;;;;;;;29.52;6.65;;;6.30;99.90;;;;;;5006923;28;20099;-62
2022/01/18 00:18:21;;;;;;;31.35;6.88;;;6.30;99.90;;;;;;5025697;28;20038;-63
2022/01/18 00:20:57;;;;;;;39.45;7.15;;;6.40;99.90;;;;;;4999943;28;20061;-63
2022/01/18 00:23:23;;;;;;;33.30;5.68;;;6.40;99.90;;;;;;5015960;28;20055;-64
2022/01/18 00:25:52;;;;;;;36.95;6.53;;;6.30;99.90;;;;;;5018349;28;20044;-64
2022/01/18 00:28:19;;;;;;;42.88;7.00;;;6.30;99.90;;;;;;5026392;28;20041;-64
2022/01/18 00:33:43;;;;;;;28.70;5.57;;;6.30;99.90;;;;;;5011567;28;20557;-64
2022/01/18 00:36:22;;;;;;;28.95;7.07;;;6.30;99.90;;;;;;5008592;28;20405;-64
2022/01/18 00:38:48;;;;;;;27.52;5.35;;;6.30;99.90;;;;;;5024110;28;20450;-63
2022/01/18 00:41:19;;;;;;;38.53;6.47;;;6.30;99.90;;;;;;4996244;28;20057;-64
2022/01/18 00:43:45;;;;;;;30.90;5.65;;;6.20;99.90;;;;;;5009446;28;20045;-63
2022/01/18 00:46:14;;;;;;;45.58;7.88;;;6.20;99.90;;;;;;5021362;28;20055;-64
2022/01/18 00:48:41;;;;;;;40.47;6.65;;;6.20;99.90;;;;;;4996031;28;20606;-64
2022/01/18 00:51:10;;;;;;;53.90;6.85;;;6.30;99.90;;;;;;5011160;28;20678;-64
2022/01/18 00:53:38;;;;;;;43.95;7.18;;;6.30;99.90;;;;;;5013105;28;20043;-63
2022/01/18 00:58:33;;;;;;;35.70;6.25;;;6.40;99.90;;;;;;5021796;28;20046;-63
2022/01/18 01:00:59;;;;;;;31.13;6.20;;;6.40;99.90;;;;;;5019566;28;20068;-64
2022/01/18 01:03:24;;;;;;;41.33;8.20;;;6.50;99.90;;;;;;4997926;28;20434;-63
2022/01/18 01:05:50;;;;;;;47.13;9.32;;;6.50;99.90;;;;;;5009773;28;20083;-63
2022/01/18 01:08:16;;;;;;;36.30;7.22;;;6.60;99.90;;;;;;5005298;28;20157;-64
2022/01/18 01:10:41;;;;;;;57.00;10.13;;;6.60;99.90;;;;;;5011147;28;20066;-64
2022/01/18 01:13:07;;;;;;;53.20;7.32;;;6.60;99.90;;;;;;5008181;28;20126;-63
2022/01/18 01:15:39;;;;;;;38.50;6.55;;;6.60;99.90;;;;;;5011891;28;20057;-63
2022/01/18 01:18:39;;;;;;;31.52;7.03;;;6.60;99.90;;;;;;5000354;28;20049;-64
2022/01/18 01:41:41;;;;;;;30.48;7.32;;;6.20;99.90;;;;;;5023539;28;20650;-64
2022/01/18 01:45:20;;;;;;;34.28;6.72;;;6.10;99.90;;;;;;5013313;28;20567;-63
2022/01/18 01:47:50;;;;;;;28.08;4.60;;;6.10;99.90;;;;;;5025147;28;20057;-63
2022/01/18 01:50:19;;;;;;;36.10;6.75;;;6.10;99.90;;;;;;5017201;28;20044;-63
2022/01/18 01:52:45;;;;;;;28.33;5.47;;;6.10;99.90;;;;;;5019703;28;20103;-63
2022/01/18 01:55:12;;;;;;;35.63;5.90;;;6.10;99.90;;;;;;5024957;28;20050;-64
2022/01/18 01:57:38;;;;;;;31.60;6.75;;;6.00;99.90;;;;;;5018675;28;20056;-63
2022/01/18 02:00:10;;;;;;;36.88;6.68;;;6.10;99.90;;;;;;5010016;28;20061;-64
2022/01/18 02:02:36;;;;;;;33.10;7.43;;;6.10;99.90;;;;;;4990353;28;20062;-64
2022/01/18 02:05:03;;;;;;;33.58;6.22;;;6.20;99.90;;;;;;5020708;28;20049;-64
2022/01/18 02:07:29;;;;;;;35.85;6.38;;;6.20;99.90;;;;;;5009425;28;20064;-63
2022/01/18 02:09:54;;;;;;;40.03;6.35;;;6.20;99.90;;;;;;5019105;28;20037;-64
2022/01/18 02:12:20;;;;;;;33.03;5.78;;;6.30;99.90;;;;;;5026531;28;20445;-64
2022/01/18 02:14:52;;;;;;;41.22;6.93;;;6.30;99.90;;;;;;5022162;28;20080;-64
2022/01/18 02:22:48;;;;;;;42.22;8.13;;;6.50;99.90;;;;;;5016559;28;20133;-64
2022/01/18 02:25:14;;;;;;;34.15;5.70;;;6.50;99.90;;;;;;5023187;28;20590;-63
2022/01/18 02:27:40;;;;;;;35.97;6.57;;;6.50;99.90;;;;;;5014578;28;20042;-64
2022/01/18 02:30:06;;;;;;;32.80;7.07;;;6.50;99.90;;;;;;4992187;28;20057;-64
2022/01/18 02:32:31;;;;;;;26.55;6.30;;;6.50;99.90;;;;;;5019544;28;20062;-63
2022/01/18 02:34:57;;;;;;;32.38;7.32;;;6.60;99.90;;;;;;5024634;28;20124;-63
2022/01/18 02:37:22;;;;;;;34.20;5.22;;;6.60;99.90;;;;;;5007889;28;20045;-64
2022/01/18 02:39:48;;;;;;;20.90;6.00;;;6.60;99.90;;;;;;5017527;28;20050;-63
2022/01/18 02:42:16;;;;;;;24.17;5.03;;;6.50;99.90;;;;;;5023985;28;20235;-63
2022/01/18 02:44:42;;;;;;;26.17;4.65;;;6.60;99.90;;;;;;5023311;28;20045;-63
2022/01/18 02:47:08;;;;;;;37.20;6.50;;;6.50;99.90;;;;;;5010400;28;20057;-64
2022/01/18 02:49:34;;;;;;;26.23;5.38;;;6.50;99.90;;;;;;5026206;28;20428;-63
2022/01/18 02:52:00;;;;;;;36.92;5.65;;;6.60;99.90;;;;;;5010077;28;20081;-63
2022/01/18 02:54:26;;;;;;;32.03;5.15;;;6.60;99.90;;;;;;5017379;28;20080;-64
2022/01/18 02:57:00;;;;;;;31.98;5.20;;;6.60;99.90;;;;;;5013807;28;20069;-64
2022/01/18 02:59:46;;;;;;;27.58;4.65;;;6.60;99.90;;;;;;5015468;28;20059;-63
2022/01/18 03:05:05;;;;;;;28.08;4.75;;;6.60;99.90;;;;;;5019197;28;20516;-63
2022/01/18 03:07:30;;;;;;;32.90;4.50;;;6.70;99.90;;;;;;5017647;28;20060;-63
2022/01/18 03:09:56;;;;;;;26.55;4.55;;;6.70;99.90;;;;;;5014200;28;20046;-64
2022/01/18 03:12:22;;;;;;;27.40;4.57;;;6.70;99.90;;;;;;5018211;28;20306;-64
2022/01/18 03:14:47;;;;;;;23.83;5.40;;;6.70;99.90;;;;;;4993451;28;20068;-64
2022/01/18 03:17:13;;;;;;;21.08;4.75;;;6.70;99.90;;;;;;5012171;28;20053;-63
2022/01/18 03:19:38;;;;;;;35.08;5.55;;;6.80;99.90;;;;;;5014999;28;20112;-63
2022/01/18 03:22:04;;;;;;;23.20;4.35;;;6.80;99.90;;;;;;5023176;28;20564;-64
2022/01/18 03:29:40;;;;;;;32.78;4.18;;;6.80;99.90;;;;;;5013248;28;20066;-63
2022/01/18 03:32:06;;;;;;;26.55;4.38;;;6.80;99.90;;;;;;4998472;28;20074;-63
2022/01/18 03:34:32;;;;;;;33.20;5.70;;;6.90;99.90;;;;;;5019536;28;20045;-63
2022/01/18 03:36:58;;;;;;;22.92;4.00;;;6.90;99.90;;;;;;5015158;28;20072;-64
2022/01/18 03:39:24;;;;;;;25.95;4.97;;;6.90;99.90;;;;;;5018355;28;20116;-63
2022/01/18 03:42:12;;;;;;;25.55;4.22;;;6.90;99.90;;;;;;5012478;28;20129;-63
2022/01/18 03:44:37;;;;;;;22.95;4.43;;;6.90;99.90;;;;;;5020040;28;20033;-63
2022/01/18 03:47:03;;;;;;;24.95;4.22;;;6.80;99.90;;;;;;5023139;28;20041;-63
2022/01/18 03:49:30;;;;;;;22.30;4.45;;;6.90;99.90;;;;;;5021005;28;20646;-64
2022/01/18 03:51:55;;;;;;;18.02;3.75;;;6.90;99.90;;;;;;5018162;28;20037;-63
2022/01/18 03:54:23;;;;;;;20.73;4.03;;;6.90;99.90;;;;;;5020622;28;20065;-63
2022/01/18 03:56:49;;;;;;;15.13;5.88;;;6.90;99.90;;;;;;5019930;28;20081;-63
2022/01/18 03:59:15;;;;;;;11.73;2.63;;;6.80;99.90;;;;;;5025701;28;20045;-64
2022/01/18 04:01:40;;;;;;;15.00;2.72;;;6.80;99.90;;;;;;5000403;28;20049;-63
2022/01/18 04:04:06;;;;;;;28.48;4.15;;;6.80;99.90;;;;;;5018516;28;20056;-64
2022/01/18 04:06:31;;;;;;;16.40;3.55;;;6.80;99.90;;;;;;4993009;28;20126;-64
2022/01/18 04:08:57;;;;;;;12.60;2.90;;;6.80;99.90;;;;;;4994564;28;20053;-64
2022/01/18 04:11:23;;;;;;;19.70;4.95;;;6.80;99.90;;;;;;5019185;28;20054;-64
2022/01/18 04:13:48;;;;;;;28.35;4.05;;;6.80;99.90;;;;;;5022790;28;20862;-63
2022/01/18 04:16:15;;;;;;;17.15;3.25;;;6.80;99.90;;;;;;5025598;28;20989;-63
2022/01/18 04:18:54;;;;;;;17.50;3.72;;;6.80;99.90;;;;;;5025303;28;20053;-63
2022/01/18 04:29:15;;;;;;;21.13;4.57;;;6.80;99.90;;;;;;5021304;28;20049;-64
2022/01/18 04:31:40;;;;;;;16.60;4.13;;;6.90;99.90;;;;;;5016746;28;20472;-63
2022/01/18 04:34:06;;;;;;;26.23;4.40;;;6.90;99.90;;;;;;5013530;28;20626;-63
2022/01/18 04:36:32;;;;;;;21.40;4.00;;;6.90;99.90;;;;;;5019775;28;20046;-63
2022/01/18 04:38:57;;;;;;;25.98;4.20;;;6.90;99.90;;;;;;5023227;28;20030;-64
2022/01/18 04:41:29;;;;;;;29.10;6.35;;;6.90;99.90;;;;;;5024829;28;20226;-64
2022/01/18 04:49:08;;;;;;;19.85;4.47;;;6.90;99.90;;;;;;5022195;28;20516;-64
2022/01/18 04:51:34;;;;;;;20.35;3.47;;;6.90;99.90;;;;;;5012333;28;20046;-63
2022/01/18 04:54:02;;;;;;;20.70;5.32;;;6.80;99.90;;;;;;5022778;28;20497;-63
2022/01/18 04:59:18;;;;;;;28.60;4.85;;;6.80;99.90;;;;;;4995109;28;20073;-64
2022/01/18 05:01:47;;;;;;;23.80;4.32;;;6.80;99.90;;;;;;5010894;28;20668;-63
2022/01/18 05:04:13;;;;;;;25.48;5.28;;;6.80;99.90;;;;;;5012230;28;20045;-63
2022/01/18 05:06:39;;;;;;;28.45;3.95;;;6.80;99.90;;;;;;5017803;28;20444;-63
2022/01/18 05:09:09;;;;;;;21.67;4.70;;;6.80;99.90;;;;;;5001195;28;20144;-64
2022/01/18 05:11:44;;;;;;;27.90;5.35;;;6.90;99.90;;;;;;5014793;28;20467;-64
2022/01/18 05:14:23;;;;;;;22.25;3.88;;;6.90;99.90;;;;;;5009963;28;20125;-63
2022/01/18 05:16:57;;;;;;;19.30;5.53;;;6.90;99.90;;;;;;5014067;28;20046;-64
2022/01/18 05:24:27;;;;;;;20.48;2.95;;;6.80;99.90;;;;;;5010545;28;20077;-63
2022/01/18 05:26:53;;;;;;;;;;;6.80;99.90;;;;;;5013592;28;20058;-64
2022/01/18 05:29:20;;;;;;;25.85;4.13;;;6.60;99.90;;;;;;5008083;28;19961;-64
2022/01/18 05:31:45;;;;;;;19.15;3.63;;;6.70;99.90;;;;;;5021988;28;20092;-64
2022/01/18 05:34:12;;;;;;;20.58;3.88;;;6.70;99.90;;;;;;5027850;28;20053;-64
2022/01/18 05:36:39;;;;;;;28.77;4.43;;;6.70;99.90;;;;;;5018578;28;20077;-63
2022/01/18 05:39:09;;;;;;;20.98;4.57;;;6.80;99.90;;;;;;5020964;28;20077;-64
2022/01/18 05:41:35;;;;;;;25.90;4.50;;;6.80;99.90;;;;;;5012045;28;20070;-64
2022/01/18 05:44:01;;;;;;;27.58;4.13;;;6.80;99.90;;;;;;5025473;28;20041;-63
2022/01/18 05:46:26;;;;;;;25.08;4.45;;;6.80;99.90;;;;;;5026965;28;20049;-63
2022/01/18 05:48:52;;;;;;;19.40;3.80;;;6.80;99.90;;;;;;5021258;28;20046;-64
2022/01/18 05:51:17;;;;;;;32.72;4.63;;;6.70;99.90;;;;;;5028952;28;20667;-64
2022/01/18 05:53:43;;;;;;;25.92;4.20;;;6.80;99.90;;;;;;5013436;28;20092;-64
2022/01/18 05:56:11;;;;;;;22.33;3.53;;;6.80;99.90;;;;;;5030113;28;20681;-63
2022/01/18 05:58:38;;;;;;;23.30;4.65;;;6.70;99.90;;;;;;5016176;28;20061;-63
2022/01/18 06:01:04;;;;;;;26.95;5.15;;;6.80;99.90;;;;;;5018323;28;20365;-64
2022/01/18 06:03:36;;;;;;;13.85;3.30;;;6.70;99.90;;;;;;5031097;28;20591;-63
2022/01/18 06:08:46;;;;;;;24.40;4.45;;;6.70;99.90;;;;;;5014875;28;20051;-63
2022/01/18 06:11:11;;;;;;;15.27;3.58;;;6.70;99.90;;;;;;5011188;28;20276;-63
2022/01/18 06:13:37;;;;;;;16.50;3.17;;;6.70;99.90;;;;;;5017233;28;20060;-64
2022/01/18 06:16:03;;;;;;;26.02;4.30;;;6.70;99.90;;;;;;5014619;28;20511;-63
2022/01/18 06:18:29;;;;;;;18.33;4.22;;;6.70;99.90;;;;;;5011490;28;20124;-64
2022/01/18 06:20:55;;;;;;;17.40;4.22;;;6.70;99.90;;;;;;5021781;28;20698;-64
2022/01/18 06:23:21;;;;;;;14.18;4.07;;;6.70;99.90;;;;;;5026605;28;20485;-63
2022/01/18 06:25:47;;;;;;;9.98;3.58;;;6.80;99.90;;;;;;5012957;28;20057;-63
2022/01/18 06:28:13;;;;;;;23.40;4.65;;;6.80;99.90;;;;;;5022433;28;20053;-63
2022/01/18 06:30:38;;;;;;;17.20;4.03;;;6.80;99.90;;;;;;5028243;28;20390;-63
2022/01/18 06:33:04;;;;;;;14.25;3.97;;;6.80;99.90;;;;;;5012698;28;20442;-64
2022/01/18 06:35:30;;;;;;;19.33;4.20;;;6.80;99.90;;;;;;5013642;28;20037;-64
2022/01/18 06:37:56;;;;;;;22.05;5.22;;;6.80;99.90;;;;;;5024993;28;20764;-64
2022/01/18 06:40:22;;;;;;;17.98;4.85;;;6.80;99.90;;;;;;5017123;28;20144;-63
2022/01/18 06:42:47;;;;;;;22.02;5.38;;;6.80;99.90;;;;;;5025332;28;20046;-64
2022/01/18 06:45:13;;;;;;;24.88;5.80;;;6.80;99.90;;;;;;5028048;28;20049;-63
2022/01/18 06:47:39;;;;;;;30.13;5.15;;;6.80;99.90;;;;;;5017506;28;20679;-63
2022/01/18 06:50:06;;;;;;;41.20;7.80;;;6.80;99.90;;;;;;5018152;28;20048;-63
2022/01/18 06:52:32;;;;;;;63.03;9.45;;;6.80;99.90;;;;;;5015403;28;20060;-64
2022/01/18 06:54:57;;;;;;;76.90;8.15;;;6.80;99.90;;;;;;5006703;28;20050;-64
2022/01/18 06:57:23;;;;;;;70.05;8.48;;;6.90;99.90;;;;;;5012104;28;20073;-63
2022/01/18 06:59:48;;;;;;;65.07;8.82;;;6.90;99.90;;;;;;5030087;28;20045;-63
2022/01/18 07:02:15;;;;;;;82.32;9.45;;;6.90;99.90;;;;;;5023961;28;20132;-64
2022/01/18 07:04:40;;;;;;;108.13;8.57;;;6.90;99.90;;;;;;5023694;28;20033;-63
2022/01/18 07:07:06;;;;;;;112.10;9.32;;;6.90;99.90;;;;;;5024858;28;20815;-64
2022/01/18 07:09:32;;;;;;;85.75;8.07;;;6.80;99.90;;;;;;5002316;28;20050;-64
2022/01/18 07:12:00;;;;;;;94.40;8.02;;;6.90;99.90;;;;;;5010549;28;20049;-64
2022/01/18 07:14:25;;;;;;;81.18;5.20;;;6.80;99.90;;;;;;5016898;28;20048;-64
2022/01/18 07:16:51;;;;;;;93.85;5.18;;;6.80;99.90;;;;;;5019000;28;20045;-63
2022/01/18 07:19:17;;;;;;;74.25;4.15;;;6.80;99.90;;;;;;5018768;28;20041;-64
2022/01/18 07:21:42;;;;;;;54.53;3.65;;;6.80;99.90;;;;;;5023025;28;20072;-64
2022/01/18 07:24:18;;;;;;;62.38;4.15;;;6.70;99.90;;;;;;5023571;28;20053;-64
2022/01/18 07:26:46;;;;;;;44.38;2.92;;;6.70;99.90;;;;;;5006278;28;20508;-64
2022/01/18 07:29:13;;;;;;;82.95;5.00;;;6.70;99.90;;;;;;5009677;28;20097;-64
2022/01/18 07:31:38;;;;;;;50.53;4.20;;;6.70;99.90;;;;;;5009220;28;20100;-64
2022/01/18 07:34:04;;;;;;;33.78;2.92;;;6.70;99.90;;;;;;5018041;28;20099;-64
2022/01/18 07:36:29;;;;;;;77.70;5.97;;;6.60;99.90;;;;;;5019362;28;20069;-64
2022/01/18 07:38:55;;;;;;;106.55;8.52;;;6.60;99.90;;;;;;5011796;28;20124;-64
2022/01/18 07:41:22;;;;;;;71.82;9.70;;;6.60;99.90;;;;;;5011716;28;20092;-64
2022/01/18 07:43:48;;;;;;;91.72;11.40;;;6.60;99.90;;;;;;5021731;28;20041;-64
2022/01/18 07:46:13;;;;;;;60.35;8.73;;;6.50;99.90;;;;;;4999248;28;20412;-64
2022/01/18 07:48:39;;;;;;;45.03;7.20;;;6.50;99.90;;;;;;5022101;28;20540;-64
2022/01/18 07:51:04;;;;;;;81.78;4.65;;;6.50;99.90;;;;;;5018729;28;20049;-64
2022/01/18 07:53:30;;;;;;;43.58;3.50;;;6.50;99.90;;;;;;5006467;28;20128;-64
2022/01/18 07:55:55;;;;;;;53.55;3.72;;;6.40;99.90;;;;;;5020449;28;20045;-64
2022/01/18 07:58:21;;;;;;;36.88;3.20;;;6.40;99.90;;;;;;5010611;28;20045;-64
2022/01/18 08:00:47;;;;;;;36.97;2.95;;;6.40;99.90;;;;;;5028912;28;20126;-64
2022/01/18 08:03:13;;;;;;;26.45;3.10;;;6.40;99.90;;;;;;5004913;28;20115;-64
2022/01/18 08:05:39;;;;;;;42.33;3.55;;;6.50;99.90;;;;;;5016526;28;20046;-64
2022/01/18 08:08:05;;;;;;;27.23;4.05;;;6.40;99.90;;;;;;5016391;28;20053;-64
2022/01/18 08:10:31;;;;;;;16.48;2.92;;;6.40;99.90;;;;;;5022215;28;20470;-63
2022/01/18 08:13:01;;;;;;;37.25;4.15;;;6.40;99.90;;;;;;5019331;28;20056;-64
2022/01/18 08:15:29;;;;;;;51.20;3.92;;;6.40;99.90;;;;;;4999549;28;20080;-64
2022/01/18 08:17:57;;;;;;;40.45;4.43;;;6.50;99.90;;;;;;5014714;28;20053;-64
2022/01/18 08:20:23;;;;;;;32.85;3.35;;;6.40;99.90;;;;;;5000102;28;20111;-64
2022/01/18 08:22:49;;;;;;;46.60;3.92;;;6.30;99.90;;;;;;5014850;28;20046;-64
2022/01/18 08:25:16;;;;;;;29.73;3.67;;;6.30;99.90;;;;;;5015987;28;20042;-64
2022/01/18 08:27:42;;;;;;;20.67;3.13;;;6.30;99.90;;;;;;5020321;28;20398;-62
2022/01/18 08:30:11;;;;;;;56.97;4.13;;;6.30;99.90;;;;;;5018367;28;20080;-63
2022/01/18 08:32:37;;;;;;;43.08;4.32;;;6.30;99.90;;;;;;5023650;28;20168;-64
2022/01/18 08:35:03;;;;;;;42.50;3.55;;;6.30;99.90;;;;;;5015285;28;20045;-63
2022/01/18 08:37:29;;;;;;;28.13;3.70;;;6.30;99.90;;;;;;5018113;28;20497;-64
2022/01/18 08:39:54;;;;;;;35.38;4.10;;;6.30;99.90;;;;;;5028161;28;20091;-63
2022/01/18 08:42:20;;;;;;;53.45;3.10;;;6.30;99.90;;;;;;5016747;28;20042;-64
2022/01/18 08:44:46;;;;;;;33.78;2.10;;;6.30;99.90;;;;;;5006109;28;20496;-64
2022/01/18 08:47:13;;;;;;;24.10;2.10;;;6.40;99.90;;;;;;5026700;28;20057;-64
2022/01/18 08:49:39;;;;;;;22.17;2.05;;;6.30;99.90;;;;;;5003435;28;20528;-64
2022/01/18 08:52:05;;;;;;;45.30;2.78;;;6.40;99.90;;;;;;5011905;28;20046;-64
2022/01/18 08:54:31;;;;;;;23.38;3.15;;;6.30;99.90;;;;;;5005897;28;20382;-64
2022/01/18 08:56:56;;;;;;;23.08;2.55;;;6.40;99.90;;;;;;5018799;28;20046;-64
2022/01/18 08:59:22;;;;;;;10.82;2.67;;;6.30;99.90;;;;;;4997644;28;20073;-64
2022/01/18 09:01:49;;;;;;;10.82;2.42;;;6.40;99.90;;;;;;5019750;28;20116;-64
2022/01/18 09:04:14;;;;;;;27.08;2.20;;;6.30;99.90;;;;;;5025903;28;20444;-64
2022/01/18 09:06:40;;;;;;;38.70;2.60;;;6.30;99.90;;;;;;5010582;28;20045;-64
2022/01/18 09:09:08;;;;;;;52.42;2.90;;;6.40;99.90;;;;;;5012625;28;20048;-64
2022/01/18 09:11:34;;;;;;;26.70;2.15;;;6.40;99.90;;;;;;5020702;28;20045;-64
2022/01/18 09:13:59;;;;;;;13.20;1.92;;;6.40;99.90;;;;;;5010106;28;20041;-64
2022/01/18 09:16:25;;;;;;;12.35;1.95;;;6.30;99.90;;;;;;5011245;28;20058;-64
2022/01/18 09:18:50;;;;;;;16.83;2.63;;;6.40;99.90;;;;;;5017377;28;20092;-63
2022/01/18 09:21:16;;;;;;;15.27;2.55;;;6.40;99.90;;;;;;5018258;28;20057;-63
2022/01/18 09:23:42;;;;;;;27.02;2.65;;;6.40;99.90;;;;;;5024344;28;20406;-63
2022/01/18 09:26:09;;;;;;;25.58;3.03;;;6.40;99.90;;;;;;5021050;28;20046;-64
2022/01/18 09:28:35;;;;;;;20.42;3.38;;;6.40;99.90;;;;;;5019660;28;20029;-64
2022/01/18 09:31:00;;;;;;;18.27;3.17;;;6.40;99.90;;;;;;5012348;28;20564;-64
2022/01/18 09:33:26;;;;;;;17.55;3.45;;;6.40;99.90;;;;;;4994853;28;20074;-63
2022/01/18 09:35:52;;;;;;;13.77;3.17;;;6.40;99.90;;;;;;5014325;28;20070;-64
2022/01/18 09:38:18;;;;;;;19.83;3.70;;;6.50;99.90;;;;;;5026328;28;20041;-64
2022/01/18 09:40:45;;;;;;;33.95;3.85;;;6.40;99.90;;;;;;5029677;28;20049;-64
2022/01/18 09:43:13;;;;;;;21.50;3.60;;;6.40;99.90;;;;;;5025219;28;20056;-64
2022/01/18 09:45:41;;;;;;;27.35;4.18;;;6.40;99.90;;;;;;5023215;28;20045;-64
2022/01/18 09:48:08;;;;;;;23.25;3.85;;;6.40;99.90;;;;;;5008450;28;20049;-64
2022/01/18 09:50:36;;;;;;;15.55;3.25;;;6.50;99.90;;;;;;5016309;28;20054;-64
2022/01/18 09:53:04;;;;;;;11.13;3.88;;;6.50;99.90;;;;;;5008969;28;20054;-64
2022/01/18 09:55:31;;;;;;;12.57;3.92;;;6.50;99.90;;;;;;5014078;28;20040;-64
2022/01/18 09:57:58;;;;;;;12.50;4.38;;;6.50;99.90;;;;;;5018494;28;20176;-64
2022/01/18 10:00:26;;;;;;;16.80;4.53;;;6.60;99.90;;;;;;5004792;28;20037;-64
2022/01/18 10:02:52;;;;;;;28.48;5.50;;;6.60;99.90;;;;;;5008268;28;20160;-65
2022/01/18 10:05:19;;;;;;;18.00;5.13;;;6.60;99.90;;;;;;5020174;28;20046;-64
2022/01/18 10:07:45;;;;;;;26.90;4.47;;;6.60;99.90;;;;;;5000420;28;20440;-64
2022/01/18 10:10:10;;;;;;;21.08;3.95;;;6.60;99.90;;;;;;5015620;28;20046;-64
2022/01/18 10:12:36;;;;;;;16.38;3.70;;;6.60;99.90;;;;;;5021532;28;20072;-64
2022/01/18 10:15:04;;;;;;;23.08;4.32;;;6.60;99.90;;;;;;5024997;28;20076;-64
2022/01/18 10:17:34;;;;;;;28.83;4.03;;;6.60;99.90;;;;;;5009028;28;20501;-64
2022/01/18 10:20:07;;;;;;;30.25;4.25;;;6.50;99.90;;;;;;5011979;28;20129;-64
2022/01/18 10:22:40;;;;;;;26.42;4.53;;;6.50;99.90;;;;;;5021302;28;20060;-64
2022/01/18 10:25:13;;;;;;;;;;;6.50;99.90;;;;;;5011551;28;20054;-64
2022/01/18 10:27:39;;;;;;;63.75;6.85;;;6.50;99.90;;;;;;5028330;28;19967;-64
2022/01/18 10:30:09;;;;;;;28.70;4.63;;;6.50;99.90;;;;;;5028173;28;20077;-64
2022/01/18 10:32:40;;;;;;;29.98;5.38;;;6.50;99.90;;;;;;5027001;28;20466;-64
2022/01/18 10:35:08;;;;;;;32.40;4.25;;;6.50;99.90;;;;;;5029654;28;20050;-64
2022/01/18 10:37:41;;;;;;;37.10;4.07;;;6.40;99.90;;;;;;5030850;28;20437;-64
2022/01/18 10:40:18;;;;;;;20.20;3.65;;;6.40;99.90;;;;;;5024257;28;20099;-64
2022/01/18 10:42:52;;;;;;;23.73;4.15;;;6.40;99.90;;;;;;5005540;28;20054;-64
2022/01/18 10:45:24;;;;;;;22.60;3.85;;;6.40;99.90;;;;;;5015139;28;20042;-64
2022/01/18 10:47:56;;;;;;;19.35;4.60;;;6.40;99.90;;;;;;5029663;28;20038;-64
2022/01/18 10:50:22;;;;;;;42.83;5.07;;;6.40;99.90;;;;;;5027826;28;20465;-64
2022/01/18 10:52:49;;;;;;;10.82;3.97;;;6.40;99.90;;;;;;5030245;28;20055;-64
2022/01/18 10:55:25;;;;;;;26.98;5.25;;;6.40;99.90;;;;;;5019465;28;20084;-64
2022/01/18 10:57:52;;;;;;;21.23;4.28;;;6.40;99.90;;;;;;5013322;28;20065;-64
2022/01/18 11:00:21;;;;;;;23.38;3.88;;;6.30;99.90;;;;;;5027368;28;20140;-65
2022/01/18 11:02:53;;;;;;;14.40;3.58;;;6.40;99.90;;;;;;5029363;28;20578;-64
2022/01/18 11:05:31;;;;;;;19.45;3.30;;;6.40;99.90;;;;;;5012653;28;20042;-64
2022/01/18 11:08:03;;;;;;;16.20;3.17;;;6.40;99.90;;;;;;4992437;28;20042;-63
2022/01/18 11:10:39;;;;;;;12.23;3.22;;;6.30;99.90;;;;;;5009942;28;20216;-63
2022/01/18 11:13:10;;;;;;;12.48;3.15;;;6.30;99.90;;;;;;5017553;28;20052;-63
2022/01/18 11:15:41;;;;;;;12.73;3.60;;;6.40;99.90;;;;;;5027681;28;20049;-63
2022/01/18 11:18:15;;;;;;;8.63;3.15;;;6.40;99.90;;;;;;5029530;28;20041;-64
2022/01/18 11:20:44;;;;;;;12.77;4.03;;;6.40;99.90;;;;;;5024734;28;20034;-63
2022/01/18 11:23:10;;;;;;;8.77;3.70;;;6.40;99.90;;;;;;5009457;28;20053;-64
2022/01/18 11:25:37;;;;;;;9.82;3.88;;;6.40;99.90;;;;;;5010245;28;20060;-64
2022/01/18 11:28:05;;;;;;;12.15;3.90;;;6.40;99.90;;;;;;4992035;28;20057;-63
2022/01/18 11:30:36;;;;;;;23.98;4.47;;;6.40;99.90;;;;;;5009873;28;20065;-62
2022/01/18 11:33:06;;;;;;;9.82;3.50;;;6.40;99.90;;;;;;5021536;28;20534;-62
2022/01/18 11:35:50;;;;;;;13.27;4.35;;;6.40;99.90;;;;;;5028230;28;20033;-63
2022/01/18 11:38:36;;;;;;;10.60;5.68;;;6.40;99.90;;;;;;5016004;28;20175;-63
2022/01/18 11:41:02;;;;;;;34.55;4.20;;;6.40;99.90;;;;;;5027982;28;20071;-63
2022/01/18 11:43:44;;;;;;;14.98;4.88;;;6.30;99.90;;;;;;5010913;28;20183;-63
2022/01/18 11:46:23;;;;;;;30.27;5.55;;;6.30;99.90;;;;;;5010717;28;20045;-62
2022/01/18 11:49:01;;;;;;;60.30;6.05;;;6.30;99.90;;;;;;5003842;28;20124;-62
2022/01/18 11:51:51;;;;;;;33.83;6.03;;;6.30;99.90;;;;;;5021590;28;20088;-63
2022/01/18 11:54:55;;;;;;;16.63;5.47;;;6.30;99.90;;;;;;5009084;28;20172;-63
2022/01/18 11:57:23;;;;;;;26.02;6.38;;;6.30;99.90;;;;;;5011193;28;20447;-63
2022/01/18 11:59:58;;;;;;;33.05;6.05;;;6.40;99.90;;;;;;5010183;28;20409;-63
2022/01/18 12:02:33;;;;;;;15.63;5.68;;;6.30;99.90;;;;;;5029170;28;20049;-63
2022/01/18 12:05:07;;;;;;;25.08;6.45;;;6.30;99.90;;;;;;5009051;28;20683;-62
2022/01/18 12:07:39;;;;;;;38.00;6.82;;;6.30;99.90;;;;;;5014174;28;20072;-63
2022/01/18 12:10:19;;;;;;;24.23;6.55;;;6.30;99.90;;;;;;5012744;28;20751;-63
2022/01/18 12:12:46;;;;;;;51.22;7.03;;;6.30;99.90;;;;;;5020137;28;20045;-63
2022/01/18 12:15:15;;;;;;;29.95;7.13;;;6.20;99.90;;;;;;5010826;28;20053;-63
2022/01/18 12:17:46;;;;;;;19.38;6.28;;;6.20;99.90;;;;;;5029006;28;20057;-63
2022/01/18 12:20:34;;;;;;;31.60;7.57;;;6.30;99.90;;;;;;5012869;28;20054;-63
2022/01/18 12:23:02;;;;;;;34.85;7.63;;;6.30;99.90;;;;;;4991168;28;20387;-63
2022/01/18 12:25:34;;;;;;;26.08;7.30;;;6.30;99.90;;;;;;5009236;28;20038;-63
2022/01/18 12:34:33;;;;;;;13.60;7.65;;;6.30;99.90;;;;;;5019590;28;20278;-63
2022/01/18 12:37:08;;;;;;;22.20;8.80;;;6.30;99.90;;;;;;5018391;28;20071;-63
2022/01/18 12:39:53;;;;;;;18.73;7.43;;;6.30;99.90;;;;;;5021411;28;20620;-63
2022/01/18 12:45:06;;;;;;;17.58;8.00;;;6.30;99.90;;;;;;5013763;28;20080;-63
2022/01/18 12:47:37;;;;;;;20.35;7.60;;;6.30;99.90;;;;;;5020496;28;20076;-63
2022/01/18 12:50:05;;;;;;;19.33;7.50;;;6.30;99.90;;;;;;5015728;28;20056;-63
2022/01/18 12:52:54;;;;;;;20.90;7.13;;;6.30;99.90;;;;;;5012410;28;20050;-63
2022/01/18 12:55:25;;;;;;;26.70;7.53;;;6.30;99.90;;;;;;5026981;28;20068;-63
2022/01/18 12:58:10;;;;;;;27.33;8.45;;;6.30;99.90;;;;;;5024117;28;20041;-63
2022/01/18 13:00:38;;;;;;;21.13;7.65;;;6.20;99.90;;;;;;5016490;28;20087;-63
2022/01/18 13:03:04;;;;;;;17.55;7.75;;;6.20;99.90;;;;;;5020141;28;20585;-63
2022/01/18 13:05:41;;;;;;;21.10;7.28;;;6.20;99.90;;;;;;5015560;28;20088;-63
2022/01/18 13:08:08;;;;;;;19.20;9.85;;;6.20;99.90;;;;;;5012632;28;20061;-63
2022/01/18 13:10:35;;;;;;;28.25;11.45;;;6.20;99.90;;;;;;5011800;28;20041;-63
2022/01/18 13:13:01;;;;;;;31.38;12.60;;;6.10;99.90;;;;;;5017518;28;20436;-63
2022/01/18 13:15:46;;;;;;;28.52;12.15;;;6.10;99.90;;;;;;5026169;28;20041;-63
2022/01/18 13:22:57;;;;;;;31.13;13.10;;;6.10;99.90;;;;;;5012620;28;20050;-63
2022/01/18 13:24:06;;;;;;;43.40;14.63;;;6.20;99.90;;;;;;5007430;28;20449;-63
2022/01/18 13:26:40;;;;;;;24.23;13.57;;;6.10;99.90;;;;;;5007209;28;20072;-64
2022/01/18 13:29:19;;;;;;;42.97;14.80;;;6.10;99.90;;;;;;5019930;28;20116;-64
2022/01/18 13:31:47;;;;;;;30.35;14.23;;;6.10;99.90;;;;;;5029079;28;20050;-64
2022/01/18 13:34:15;;;;;;;35.05;13.18;;;6.10;99.90;;;;;;5024861;28;20050;-64
2022/01/18 13:36:55;;;;;;;32.05;11.80;;;6.00;99.90;;;;;;5023912;28;20042;-63
2022/01/18 13:39:35;;;;;;;37.75;12.48;;;5.90;99.90;;;;;;5017513;28;20048;-63
2022/01/18 13:42:01;;;;;;;40.65;13.48;;;5.80;99.90;;;;;;5016293;28;20430;-63
2022/01/18 13:44:28;;;;;;;27.92;13.57;;;5.80;99.90;;;;;;5023389;28;20069;-64
2022/01/18 13:46:55;;;;;;;27.02;12.48;;;5.90;99.90;;;;;;5028262;28;20076;-63
2022/01/18 13:49:24;;;;;;;29.25;12.15;;;5.80;99.90;;;;;;5021483;28;20057;-63
2022/01/18 13:52:01;;;;;;;31.23;13.15;;;5.90;99.90;;;;;;5009788;28;20061;-63
2022/01/18 13:54:28;;;;;;;25.42;12.10;;;5.80;99.90;;;;;;5007097;28;20089;-63
2022/01/18 13:56:55;;;;;;;34.08;13.13;;;5.90;99.90;;;;;;5004802;28;20060;-63
2022/01/18 13:59:26;;;;;;;24.67;11.23;;;5.80;99.90;;;;;;5026874;28;20108;-63
2022/01/18 14:01:52;;;;;;;31.60;11.80;;;5.80;99.90;;;;;;5024239;28;20179;-63
2022/01/18 14:04:21;;;;;;;31.48;12.50;;;5.70;99.90;;;;;;5026812;28;20084;-64
2022/01/18 14:06:49;;;;;;;28.15;13.40;;;5.70;99.90;;;;;;5013761;28;20056;-63
2022/01/18 14:09:16;;;;;;;23.98;12.68;;;5.70;99.90;;;;;;5008702;28;20077;-63
2022/01/18 14:11:53;;;;;;;42.25;12.43;;;5.70;99.90;;;;;;5001008;28;20099;-63